VLPS

Details ICAO VLPS (PKZ)
Name PAKSE
Region Laos
Timezone Asia/Vientiane (UTC+7.0)
Plans Departing 6
Arriving 3
Stats Elevation 351 ft / 107 m (AMSL)
Location 15.132051° 105.781417°
Runways 1
Magnetic Variation 0.886° W
Sunrise 2018-05-25 22:27:41 UTC / 2018-05-26 05:27:41 Local
Sunset 2018-05-26 11:22:57 UTC / 2018-05-26 18:22:57 Local
Advertisement - Login to hide

Runways

ID Width Length Bearing (true) Bearing (mag) Surface Threshold Offset Overrun Length
15 118 ft / 36 m 5,350 ft / 1,631 m 147.12° 148.01° Concrete 0 ft / 0 m 660 ft / 201 m
33 118 ft / 36 m 5,350 ft / 1,631 m 327.12° 328.01° Concrete 0 ft / 0 m 627 ft / 191 m

Map

Weather


0- 5 10 15 20 25 30 35+ Temperature / ° C

Clouds and Precipitation
Forecast for 2018-05-26 00:00 UTC. Updated 5 hours ago

Ground ~20,000 ft ~40,000 ft Winds

METAR

VLPS 260400Z 14002KT 9999 FEW020 BKN050 29/24 Q1010 NOSIG

TAF

TAF VLPS 252300Z 2600/2624 32004KT 9999 SCT020 SCT050

Frequencies

Tower 118.50 MHz TWR
Warning: Do not use this data for real-world aviation or navigation. No guarantee of current accuracy is given.